sensor_id;sensor_type;location;lat;lon;timestamp;P1;durP1;ratioP1;P2;durP2;ratioP2
10511;SDS011;5304;48.604;2.096;2023-02-01T00:00:55;16.37;;;7.40;;
10511;SDS011;5304;48.604;2.096;2023-02-01T00:03:39;12.93;;;6.90;;
10511;SDS011;5304;48.604;2.096;2023-02-01T00:06:24;16.97;;;7.63;;
10511;SDS011;5304;48.604;2.096;2023-02-01T00:09:08;16.63;;;7.20;;
10511;SDS011;5304;48.604;2.096;2023-02-01T00:11:52;21.13;;;7.33;;
10511;SDS011;5304;48.604;2.096;2023-02-01T00:14:37;13.97;;;7.20;;
10511;SDS011;5304;48.604;2.096;2023-02-01T00:17:23;18.30;;;7.43;;
10511;SDS011;5304;48.604;2.096;2023-02-01T00:20:08;15.63;;;8.03;;
10511;SDS011;5304;48.604;2.096;2023-02-01T00:22:53;18.63;;;7.20;;
10511;SDS011;5304;48.604;2.096;2023-02-01T00:25:38;11.57;;;7.47;;
10511;SDS011;5304;48.604;2.096;2023-02-01T00:28:23;17.10;;;8.43;;
10511;SDS011;5304;48.604;2.096;2023-02-01T00:31:07;21.10;;;7.30;;
10511;SDS011;5304;48.604;2.096;2023-02-01T00:33:52;18.43;;;7.77;;
10511;SDS011;5304;48.604;2.096;2023-02-01T00:36:36;15.00;;;7.50;;
10511;SDS011;5304;48.604;2.096;2023-02-01T00:39:21;17.57;;;7.27;;
10511;SDS011;5304;48.604;2.096;2023-02-01T00:42:06;17.07;;;7.30;;
10511;SDS011;5304;48.604;2.096;2023-02-01T00:44:50;15.70;;;7.57;;
10511;SDS011;5304;48.604;2.096;2023-02-01T00:47:34;13.03;;;7.03;;
10511;SDS011;5304;48.604;2.096;2023-02-01T00:50:19;17.47;;;6.97;;
10511;SDS011;5304;48.604;2.096;2023-02-01T00:53:03;10.40;;;6.73;;
10511;SDS011;5304;48.604;2.096;2023-02-01T00:55:48;16.70;;;7.70;;
10511;SDS011;5304;48.604;2.096;2023-02-01T00:58:32;15.17;;;6.90;;
10511;SDS011;5304;48.604;2.096;2023-02-01T01:01:18;14.80;;;6.87;;
10511;SDS011;5304;48.604;2.096;2023-02-01T01:04:04;16.00;;;6.90;;
10511;SDS011;5304;48.604;2.096;2023-02-01T01:06:49;12.53;;;6.57;;
10511;SDS011;5304;48.604;2.096;2023-02-01T01:09:33;13.50;;;6.57;;
10511;SDS011;5304;48.604;2.096;2023-02-01T01:12:18;14.47;;;6.90;;
10511;SDS011;5304;48.604;2.096;2023-02-01T01:15:03;16.77;;;7.23;;
10511;SDS011;5304;48.604;2.096;2023-02-01T01:17:48;16.43;;;6.77;;
10511;SDS011;5304;48.604;2.096;2023-02-01T01:20:35;15.03;;;7.47;;
10511;SDS011;5304;48.604;2.096;2023-02-01T01:23:21;8.97;;;6.17;;
10511;SDS011;5304;48.604;2.096;2023-02-01T01:26:08;16.40;;;7.20;;
10511;SDS011;5304;48.604;2.096;2023-02-01T01:28:56;13.97;;;6.40;;
10511;SDS011;5304;48.604;2.096;2023-02-01T01:31:42;15.33;;;7.47;;
10511;SDS011;5304;48.604;2.096;2023-02-01T01:34:26;13.03;;;7.30;;
10511;SDS011;5304;48.604;2.096;2023-02-01T01:37:11;13.83;;;7.27;;
10511;SDS011;5304;48.604;2.096;2023-02-01T01:39:55;15.43;;;7.47;;
10511;SDS011;5304;48.604;2.096;2023-02-01T01:42:41;14.30;;;7.63;;
10511;SDS011;5304;48.604;2.096;2023-02-01T01:48:28;15.77;;;7.17;;
10511;SDS011;5304;48.604;2.096;2023-02-01T01:51:14;13.40;;;6.17;;
10511;SDS011;5304;48.604;2.096;2023-02-01T01:54:08;14.03;;;7.47;;
10511;SDS011;5304;48.604;2.096;2023-02-01T01:57:03;10.67;;;6.17;;
10511;SDS011;5304;48.604;2.096;2023-02-01T01:59:53;10.23;;;6.17;;
10511;SDS011;5304;48.604;2.096;2023-02-01T02:02:44;14.07;;;6.50;;
10511;SDS011;5304;48.604;2.096;2023-02-01T02:05:30;11.77;;;6.90;;
10511;SDS011;5304;48.604;2.096;2023-02-01T02:08:15;11.47;;;5.63;;
10511;SDS011;5304;48.604;2.096;2023-02-01T02:11:04;11.13;;;6.43;;
10511;SDS011;5304;48.604;2.096;2023-02-01T02:13:49;13.07;;;5.43;;
10511;SDS011;5304;48.604;2.096;2023-02-01T02:16:41;17.67;;;6.27;;
10511;SDS011;5304;48.604;2.096;2023-02-01T02:37:36;9.73;;;6.13;;
10511;SDS011;5304;48.604;2.096;2023-02-01T02:43:37;12.60;;;6.07;;
10511;SDS011;5304;48.604;2.096;2023-02-01T02:46:49;10.20;;;6.63;;
10511;SDS011;5304;48.604;2.096;2023-02-01T02:50:17;11.03;;;6.03;;
10511;SDS011;5304;48.604;2.096;2023-02-01T02:53:32;14.90;;;6.70;;
10511;SDS011;5304;48.604;2.096;2023-02-01T02:56:40;12.20;;;6.10;;
10511;SDS011;5304;48.604;2.096;2023-02-01T02:59:44;14.60;;;6.03;;
10511;SDS011;5304;48.604;2.096;2023-02-01T03:02:50;9.10;;;6.20;;
10511;SDS011;5304;48.604;2.096;2023-02-01T03:05:53;15.37;;;5.73;;
10511;SDS011;5304;48.604;2.096;2023-02-01T03:08:38;13.53;;;5.97;;
10511;SDS011;5304;48.604;2.096;2023-02-01T03:11:24;10.30;;;6.03;;
10511;SDS011;5304;48.604;2.096;2023-02-01T03:14:29;13.00;;;5.57;;
10511;SDS011;5304;48.604;2.096;2023-02-01T03:17:18;14.10;;;5.33;;
10511;SDS011;5304;48.604;2.096;2023-02-01T03:20:09;9.97;;;5.73;;
10511;SDS011;5304;48.604;2.096;2023-02-01T03:22:57;9.60;;;5.33;;
10511;SDS011;5304;48.604;2.096;2023-02-01T03:25:43;14.73;;;5.33;;
10511;SDS011;5304;48.604;2.096;2023-02-01T03:28:31;13.27;;;5.50;;
10511;SDS011;5304;48.604;2.096;2023-02-01T03:31:18;12.60;;;4.93;;
10511;SDS011;5304;48.604;2.096;2023-02-01T03:34:03;10.30;;;4.37;;
10511;SDS011;5304;48.604;2.096;2023-02-01T03:36:51;13.67;;;4.63;;
10511;SDS011;5304;48.604;2.096;2023-02-01T03:40:03;12.60;;;5.43;;
10511;SDS011;5304;48.604;2.096;2023-02-01T03:42:52;9.63;;;4.30;;
10511;SDS011;5304;48.604;2.096;2023-02-01T03:45:41;18.83;;;5.60;;
10511;SDS011;5304;48.604;2.096;2023-02-01T03:48:29;11.60;;;4.20;;
10511;SDS011;5304;48.604;2.096;2023-02-01T03:51:14;15.30;;;4.63;;
10511;SDS011;5304;48.604;2.096;2023-02-01T03:53:59;10.67;;;4.33;;
10511;SDS011;5304;48.604;2.096;2023-02-01T03:56:47;15.03;;;4.63;;
10511;SDS011;5304;48.604;2.096;2023-02-01T03:59:32;11.50;;;4.37;;
10511;SDS011;5304;48.604;2.096;2023-02-01T04:02:16;15.33;;;4.13;;
10511;SDS011;5304;48.604;2.096;2023-02-01T04:05:01;12.47;;;3.77;;
10511;SDS011;5304;48.604;2.096;2023-02-01T04:07:45;11.17;;;3.40;;
10511;SDS011;5304;48.604;2.096;2023-02-01T04:10:30;9.73;;;3.30;;
10511;SDS011;5304;48.604;2.096;2023-02-01T04:13:14;8.77;;;3.17;;
10511;SDS011;5304;48.604;2.096;2023-02-01T04:15:58;15.47;;;3.97;;
10511;SDS011;5304;48.604;2.096;2023-02-01T04:18:43;11.77;;;4.23;;
10511;SDS011;5304;48.604;2.096;2023-02-01T04:21:27;38.70;;;15.37;;
10511;SDS011;5304;48.604;2.096;2023-02-01T04:24:12;14.77;;;5.50;;
10511;SDS011;5304;48.604;2.096;2023-02-01T04:26:56;17.27;;;7.03;;
10511;SDS011;5304;48.604;2.096;2023-02-01T04:29:40;11.43;;;4.83;;
10511;SDS011;5304;48.604;2.096;2023-02-01T04:32:25;29.60;;;18.97;;
10511;SDS011;5304;48.604;2.096;2023-02-01T04:35:09;18.77;;;9.30;;
10511;SDS011;5304;48.604;2.096;2023-02-01T04:37:55;13.83;;;4.93;;
10511;SDS011;5304;48.604;2.096;2023-02-01T04:40:39;9.13;;;4.43;;
10511;SDS011;5304;48.604;2.096;2023-02-01T04:43:24;13.57;;;4.03;;
10511;SDS011;5304;48.604;2.096;2023-02-01T04:46:08;13.63;;;4.73;;
10511;SDS011;5304;48.604;2.096;2023-02-01T04:48:53;12.50;;;2.80;;
10511;SDS011;5304;48.604;2.096;2023-02-01T04:51:37;14.37;;;4.13;;
10511;SDS011;5304;48.604;2.096;2023-02-01T04:54:22;11.00;;;3.10;;
10511;SDS011;5304;48.604;2.096;2023-02-01T04:57:06;8.23;;;2.63;;
10511;SDS011;5304;48.604;2.096;2023-02-01T04:59:51;11.83;;;2.77;;
10511;SDS011;5304;48.604;2.096;2023-02-01T05:02:35;9.57;;;3.80;;
10511;SDS011;5304;48.604;2.096;2023-02-01T05:05:20;13.47;;;3.33;;
10511;SDS011;5304;48.604;2.096;2023-02-01T05:08:06;13.70;;;2.90;;
10511;SDS011;5304;48.604;2.096;2023-02-01T05:10:50;10.23;;;2.80;;
10511;SDS011;5304;48.604;2.096;2023-02-01T05:13:35;11.67;;;2.60;;
10511;SDS011;5304;48.604;2.096;2023-02-01T05:16:31;11.47;;;3.00;;
10511;SDS011;5304;48.604;2.096;2023-02-01T05:19:16;13.77;;;4.90;;
10511;SDS011;5304;48.604;2.096;2023-02-01T05:22:00;18.93;;;4.27;;
10511;SDS011;5304;48.604;2.096;2023-02-01T05:24:44;13.10;;;3.50;;
10511;SDS011;5304;48.604;2.096;2023-02-01T05:27:31;15.37;;;2.90;;
10511;SDS011;5304;48.604;2.096;2023-02-01T05:30:16;13.20;;;2.90;;
10511;SDS011;5304;48.604;2.096;2023-02-01T05:33:01;14.60;;;2.87;;
10511;SDS011;5304;48.604;2.096;2023-02-01T05:35:45;15.60;;;3.80;;
10511;SDS011;5304;48.604;2.096;2023-02-01T05:38:30;14.83;;;3.50;;
10511;SDS011;5304;48.604;2.096;2023-02-01T05:41:14;8.90;;;4.67;;
10511;SDS011;5304;48.604;2.096;2023-02-01T05:43:59;11.80;;;4.37;;
10511;SDS011;5304;48.604;2.096;2023-02-01T05:46:44;8.73;;;3.40;;
10511;SDS011;5304;48.604;2.096;2023-02-01T05:49:29;14.03;;;3.93;;
10511;SDS011;5304;48.604;2.096;2023-02-01T05:52:13;16.33;;;5.53;;
10511;SDS011;5304;48.604;2.096;2023-02-01T05:55:03;14.60;;;4.43;;
10511;SDS011;5304;48.604;2.096;2023-02-01T05:57:47;10.50;;;2.83;;
10511;SDS011;5304;48.604;2.096;2023-02-01T06:00:32;9.70;;;3.13;;
10511;SDS011;5304;48.604;2.096;2023-02-01T06:03:16;10.13;;;3.27;;
10511;SDS011;5304;48.604;2.096;2023-02-01T06:06:01;8.60;;;2.73;;
10511;SDS011;5304;48.604;2.096;2023-02-01T06:08:45;9.07;;;2.90;;
10511;SDS011;5304;48.604;2.096;2023-02-01T06:11:29;14.03;;;3.50;;
10511;SDS011;5304;48.604;2.096;2023-02-01T06:14:14;7.33;;;2.20;;
10511;SDS011;5304;48.604;2.096;2023-02-01T06:16:59;11.20;;;3.23;;
10511;SDS011;5304;48.604;2.096;2023-02-01T06:19:43;10.23;;;2.53;;
10511;SDS011;5304;48.604;2.096;2023-02-01T06:22:28;9.00;;;2.20;;
10511;SDS011;5304;48.604;2.096;2023-02-01T06:25:13;11.60;;;2.63;;
10511;SDS011;5304;48.604;2.096;2023-02-01T06:27:59;11.93;;;2.97;;
10511;SDS011;5304;48.604;2.096;2023-02-01T06:30:44;7.93;;;2.40;;
10511;SDS011;5304;48.604;2.096;2023-02-01T06:33:29;9.57;;;2.63;;
10511;SDS011;5304;48.604;2.096;2023-02-01T06:36:14;13.13;;;2.43;;
10511;SDS011;5304;48.604;2.096;2023-02-01T06:38:59;13.77;;;2.43;;
10511;SDS011;5304;48.604;2.096;2023-02-01T06:41:47;12.33;;;3.13;;
10511;SDS011;5304;48.604;2.096;2023-02-01T06:44:32;13.07;;;4.50;;
10511;SDS011;5304;48.604;2.096;2023-02-01T06:47:16;17.33;;;5.30;;
10511;SDS011;5304;48.604;2.096;2023-02-01T06:50:01;20.37;;;4.70;;
10511;SDS011;5304;48.604;2.096;2023-02-01T06:52:45;15.97;;;3.47;;
10511;SDS011;5304;48.604;2.096;2023-02-01T06:55:30;15.37;;;3.10;;
10511;SDS011;5304;48.604;2.096;2023-02-01T06:58:14;15.50;;;3.47;;
10511;SDS011;5304;48.604;2.096;2023-02-01T07:01:04;15.27;;;4.07;;
10511;SDS011;5304;48.604;2.096;2023-02-01T07:03:49;19.23;;;3.90;;
10511;SDS011;5304;48.604;2.096;2023-02-01T07:06:34;13.30;;;3.23;;
10511;SDS011;5304;48.604;2.096;2023-02-01T07:09:18;9.50;;;3.07;;
10511;SDS011;5304;48.604;2.096;2023-02-01T07:12:03;17.83;;;6.07;;
10511;SDS011;5304;48.604;2.096;2023-02-01T07:14:47;20.07;;;4.80;;
10511;SDS011;5304;48.604;2.096;2023-02-01T07:17:32;69.90;;;29.30;;
10511;SDS011;5304;48.604;2.096;2023-02-01T07:20:16;83.73;;;40.77;;
10511;SDS011;5304;48.604;2.096;2023-02-01T07:23:01;35.73;;;15.97;;
10511;SDS011;5304;48.604;2.096;2023-02-01T07:25:45;39.20;;;17.53;;
10511;SDS011;5304;48.604;2.096;2023-02-01T07:28:31;28.83;;;14.97;;
10511;SDS011;5304;48.604;2.096;2023-02-01T07:31:17;30.07;;;9.33;;
10511;SDS011;5304;48.604;2.096;2023-02-01T07:34:04;19.17;;;7.23;;
10511;SDS011;5304;48.604;2.096;2023-02-01T07:36:49;16.23;;;6.50;;
10511;SDS011;5304;48.604;2.096;2023-02-01T07:39:33;13.43;;;4.83;;
10511;SDS011;5304;48.604;2.096;2023-02-01T07:42:18;22.53;;;7.73;;
10511;SDS011;5304;48.604;2.096;2023-02-01T07:45:03;16.70;;;7.07;;
10511;SDS011;5304;48.604;2.096;2023-02-01T07:47:48;20.47;;;7.03;;
10511;SDS011;5304;48.604;2.096;2023-02-01T07:50:32;21.10;;;7.70;;
10511;SDS011;5304;48.604;2.096;2023-02-01T07:53:16;15.77;;;4.43;;
10511;SDS011;5304;48.604;2.096;2023-02-01T07:56:01;13.57;;;5.70;;
10511;SDS011;5304;48.604;2.096;2023-02-01T07:58:47;21.73;;;11.60;;
10511;SDS011;5304;48.604;2.096;2023-02-01T08:01:33;21.97;;;12.13;;
10511;SDS011;5304;48.604;2.096;2023-02-01T08:04:17;22.83;;;15.67;;
10511;SDS011;5304;48.604;2.096;2023-02-01T08:07:01;26.93;;;14.07;;
10511;SDS011;5304;48.604;2.096;2023-02-01T08:09:46;26.30;;;10.33;;
10511;SDS011;5304;48.604;2.096;2023-02-01T08:12:30;16.00;;;5.77;;
10511;SDS011;5304;48.604;2.096;2023-02-01T08:15:15;21.27;;;9.73;;
10511;SDS011;5304;48.604;2.096;2023-02-01T08:18:00;20.27;;;10.37;;
10511;SDS011;5304;48.604;2.096;2023-02-01T08:20:46;16.77;;;5.20;;
10511;SDS011;5304;48.604;2.096;2023-02-01T08:23:31;12.53;;;4.77;;
10511;SDS011;5304;48.604;2.096;2023-02-01T08:26:17;18.47;;;6.33;;
10511;SDS011;5304;48.604;2.096;2023-02-01T08:29:07;18.30;;;7.00;;
10511;SDS011;5304;48.604;2.096;2023-02-01T08:31:54;15.10;;;5.63;;
10511;SDS011;5304;48.604;2.096;2023-02-01T08:34:38;13.37;;;6.07;;
10511;SDS011;5304;48.604;2.096;2023-02-01T08:37:23;15.17;;;5.77;;
10511;SDS011;5304;48.604;2.096;2023-02-01T08:40:09;17.93;;;6.77;;
10511;SDS011;5304;48.604;2.096;2023-02-01T08:42:54;15.67;;;4.30;;
10511;SDS011;5304;48.604;2.096;2023-02-01T08:45:39;20.57;;;5.27;;
10511;SDS011;5304;48.604;2.096;2023-02-01T08:48:24;16.80;;;5.47;;
10511;SDS011;5304;48.604;2.096;2023-02-01T08:51:10;14.90;;;3.70;;
10511;SDS011;5304;48.604;2.096;2023-02-01T08:53:56;14.33;;;4.10;;
10511;SDS011;5304;48.604;2.096;2023-02-01T08:56:40;14.03;;;6.80;;
10511;SDS011;5304;48.604;2.096;2023-02-01T08:59:25;16.60;;;3.80;;
10511;SDS011;5304;48.604;2.096;2023-02-01T09:02:12;16.73;;;4.70;;
10511;SDS011;5304;48.604;2.096;2023-02-01T09:04:58;12.27;;;5.07;;
10511;SDS011;5304;48.604;2.096;2023-02-01T09:07:42;10.67;;;3.90;;
10511;SDS011;5304;48.604;2.096;2023-02-01T09:10:26;18.57;;;9.60;;
10511;SDS011;5304;48.604;2.096;2023-02-01T09:13:11;15.90;;;3.47;;
10511;SDS011;5304;48.604;2.096;2023-02-01T09:15:55;12.70;;;3.80;;
10511;SDS011;5304;48.604;2.096;2023-02-01T09:18:39;9.53;;;3.07;;
10511;SDS011;5304;48.604;2.096;2023-02-01T09:21:24;10.07;;;4.40;;
10511;SDS011;5304;48.604;2.096;2023-02-01T09:24:11;16.90;;;6.33;;
10511;SDS011;5304;48.604;2.096;2023-02-01T09:26:56;14.40;;;5.57;;
10511;SDS011;5304;48.604;2.096;2023-02-01T09:29:41;13.77;;;4.70;;
10511;SDS011;5304;48.604;2.096;2023-02-01T09:32:26;19.83;;;4.70;;
10511;SDS011;5304;48.604;2.096;2023-02-01T09:35:10;19.20;;;7.70;;
10511;SDS011;5304;48.604;2.096;2023-02-01T09:37:54;18.17;;;4.20;;
10511;SDS011;5304;48.604;2.096;2023-02-01T09:40:40;15.03;;;5.33;;
10511;SDS011;5304;48.604;2.096;2023-02-01T09:46:31;11.10;;;3.80;;
10511;SDS011;5304;48.604;2.096;2023-02-01T09:49:19;13.67;;;3.80;;
10511;SDS011;5304;48.604;2.096;2023-02-01T09:52:10;23.97;;;10.20;;
10511;SDS011;5304;48.604;2.096;2023-02-01T09:55:00;11.57;;;6.73;;
10511;SDS011;5304;48.604;2.096;2023-02-01T09:57:52;15.97;;;3.43;;
10511;SDS011;5304;48.604;2.096;2023-02-01T10:00:45;20.70;;;5.47;;
10511;SDS011;5304;48.604;2.096;2023-02-01T10:03:35;13.33;;;4.13;;
10511;SDS011;5304;48.604;2.096;2023-02-01T10:22:33;11.80;;;3.60;;
10511;SDS011;5304;48.604;2.096;2023-02-01T10:25:32;15.83;;;3.73;;
10511;SDS011;5304;48.604;2.096;2023-02-01T10:28:32;21.20;;;5.80;;
10511;SDS011;5304;48.604;2.096;2023-02-01T10:31:18;18.37;;;4.23;;
10511;SDS011;5304;48.604;2.096;2023-02-01T10:34:18;13.17;;;3.33;;
10511;SDS011;5304;48.604;2.096;2023-02-01T10:37:23;16.60;;;3.70;;
10511;SDS011;5304;48.604;2.096;2023-02-01T10:43:08;10.50;;;3.10;;
10511;SDS011;5304;48.604;2.096;2023-02-01T10:45:53;12.23;;;3.47;;
10511;SDS011;5304;48.604;2.096;2023-02-01T10:48:38;16.27;;;4.33;;
10511;SDS011;5304;48.604;2.096;2023-02-01T10:51:24;14.30;;;3.93;;
10511;SDS011;5304;48.604;2.096;2023-02-01T10:54:22;10.97;;;3.57;;
10511;SDS011;5304;48.604;2.096;2023-02-01T10:57:22;12.20;;;3.77;;
10511;SDS011;5304;48.604;2.096;2023-02-01T11:00:19;18.20;;;3.50;;
10511;SDS011;5304;48.604;2.096;2023-02-01T11:03:19;15.50;;;4.83;;
10511;SDS011;5304;48.604;2.096;2023-02-01T11:09:19;7.33;;;3.10;;
10511;SDS011;5304;48.604;2.096;2023-02-01T11:12:10;11.00;;;3.20;;
10511;SDS011;5304;48.604;2.096;2023-02-01T11:15:19;10.50;;;3.23;;
10511;SDS011;5304;48.604;2.096;2023-02-01T11:18:38;20.13;;;9.93;;
10511;SDS011;5304;48.604;2.096;2023-02-01T11:21:19;12.30;;;4.23;;
10511;SDS011;5304;48.604;2.096;2023-02-01T11:24:05;11.77;;;4.40;;
10511;SDS011;5304;48.604;2.096;2023-02-01T11:26:57;14.03;;;4.10;;
10511;SDS011;5304;48.604;2.096;2023-02-01T11:29:46;11.80;;;3.67;;
10511;SDS011;5304;48.604;2.096;2023-02-01T11:32:34;11.23;;;3.57;;
10511;SDS011;5304;48.604;2.096;2023-02-01T11:35:19;15.53;;;3.90;;
10511;SDS011;5304;48.604;2.096;2023-02-01T11:38:10;15.60;;;7.07;;
10511;SDS011;5304;48.604;2.096;2023-02-01T11:43:58;12.83;;;4.47;;
10511;SDS011;5304;48.604;2.096;2023-02-01T11:46:44;20.33;;;9.77;;
10511;SDS011;5304;48.604;2.096;2023-02-01T11:49:28;18.60;;;6.87;;
10511;SDS011;5304;48.604;2.096;2023-02-01T11:55:39;19.10;;;6.00;;
10511;SDS011;5304;48.604;2.096;2023-02-01T12:17:10;14.40;;;4.47;;
10511;SDS011;5304;48.604;2.096;2023-02-01T12:29:07;11.63;;;4.03;;
10511;SDS011;5304;48.604;2.096;2023-02-01T12:47:57;10.80;;;3.70;;
10511;SDS011;5304;48.604;2.096;2023-02-01T12:51:20;13.20;;;3.63;;
10511;SDS011;5304;48.604;2.096;2023-02-01T12:54:19;8.07;;;3.07;;
10511;SDS011;5304;48.604;2.096;2023-02-01T12:57:32;15.53;;;3.40;;
10511;SDS011;5304;48.604;2.096;2023-02-01T13:06:41;12.63;;;3.33;;
10511;SDS011;5304;48.604;2.096;2023-02-01T13:09:38;12.43;;;3.63;;
10511;SDS011;5304;48.604;2.096;2023-02-01T13:12:34;15.43;;;3.60;;
10511;SDS011;5304;48.604;2.096;2023-02-01T13:15:30;13.10;;;3.97;;
10511;SDS011;5304;48.604;2.096;2023-02-01T13:18:20;13.03;;;3.47;;
10511;SDS011;5304;48.604;2.096;2023-02-01T13:21:17;18.63;;;4.77;;
10511;SDS011;5304;48.604;2.096;2023-02-01T13:24:07;11.50;;;3.50;;
10511;SDS011;5304;48.604;2.096;2023-02-01T13:27:14;18.73;;;7.07;;
10511;SDS011;5304;48.604;2.096;2023-02-01T13:30:00;16.83;;;4.87;;
10511;SDS011;5304;48.604;2.096;2023-02-01T13:33:06;15.13;;;4.00;;
10511;SDS011;5304;48.604;2.096;2023-02-01T13:45:12;15.97;;;3.63;;
10511;SDS011;5304;48.604;2.096;2023-02-01T13:47:59;20.20;;;3.83;;
10511;SDS011;5304;48.604;2.096;2023-02-01T13:50:49;10.80;;;4.07;;
10511;SDS011;5304;48.604;2.096;2023-02-01T13:53:37;8.80;;;3.03;;
10511;SDS011;5304;48.604;2.096;2023-02-01T13:56:28;11.77;;;3.27;;
10511;SDS011;5304;48.604;2.096;2023-02-01T13:59:36;15.23;;;3.70;;
10511;SDS011;5304;48.604;2.096;2023-02-01T14:08:37;15.27;;;3.70;;
10511;SDS011;5304;48.604;2.096;2023-02-01T14:11:40;10.90;;;3.63;;
10511;SDS011;5304;48.604;2.096;2023-02-01T14:14:40;10.20;;;3.40;;
10511;SDS011;5304;48.604;2.096;2023-02-01T14:17:33;11.73;;;3.30;;
10511;SDS011;5304;48.604;2.096;2023-02-01T14:23:24;9.13;;;3.90;;
10511;SDS011;5304;48.604;2.096;2023-02-01T14:26:16;13.83;;;3.27;;
10511;SDS011;5304;48.604;2.096;2023-02-01T14:31:59;12.03;;;4.67;;
10511;SDS011;5304;48.604;2.096;2023-02-01T14:34:56;12.23;;;2.87;;
10511;SDS011;5304;48.604;2.096;2023-02-01T14:37:43;9.97;;;3.10;;
10511;SDS011;5304;48.604;2.096;2023-02-01T14:40:28;14.33;;;5.00;;
10511;SDS011;5304;48.604;2.096;2023-02-01T14:43:13;11.30;;;3.80;;
10511;SDS011;5304;48.604;2.096;2023-02-01T14:45:58;8.00;;;3.47;;
10511;SDS011;5304;48.604;2.096;2023-02-01T14:48:43;13.27;;;3.27;;
10511;SDS011;5304;48.604;2.096;2023-02-01T14:51:29;12.73;;;2.97;;
10511;SDS011;5304;48.604;2.096;2023-02-01T14:54:15;11.07;;;3.33;;
10511;SDS011;5304;48.604;2.096;2023-02-01T14:57:02;10.77;;;3.17;;
10511;SDS011;5304;48.604;2.096;2023-02-01T14:59:48;11.77;;;2.90;;
10511;SDS011;5304;48.604;2.096;2023-02-01T15:02:37;11.47;;;3.10;;
10511;SDS011;5304;48.604;2.096;2023-02-01T15:05:28;8.80;;;3.43;;
10511;SDS011;5304;48.604;2.096;2023-02-01T15:08:18;5.43;;;2.57;;
10511;SDS011;5304;48.604;2.096;2023-02-01T15:11:08;18.20;;;5.27;;
10511;SDS011;5304;48.604;2.096;2023-02-01T15:13:58;13.47;;;4.57;;
10511;SDS011;5304;48.604;2.096;2023-02-01T15:16:44;8.93;;;2.77;;
10511;SDS011;5304;48.604;2.096;2023-02-01T15:19:33;7.80;;;2.93;;
10511;SDS011;5304;48.604;2.096;2023-02-01T15:22:18;8.93;;;3.13;;
10511;SDS011;5304;48.604;2.096;2023-02-01T15:25:03;15.73;;;3.50;;
10511;SDS011;5304;48.604;2.096;2023-02-01T15:27:48;11.40;;;2.90;;
10511;SDS011;5304;48.604;2.096;2023-02-01T15:30:33;11.13;;;3.13;;
10511;SDS011;5304;48.604;2.096;2023-02-01T15:33:19;9.70;;;3.47;;
10511;SDS011;5304;48.604;2.096;2023-02-01T15:42:08;10.50;;;3.00;;
10511;SDS011;5304;48.604;2.096;2023-02-01T15:45:02;10.60;;;3.67;;
10511;SDS011;5304;48.604;2.096;2023-02-01T15:47:48;10.77;;;3.73;;
10511;SDS011;5304;48.604;2.096;2023-02-01T15:50:34;6.30;;;3.37;;
10511;SDS011;5304;48.604;2.096;2023-02-01T15:53:24;11.30;;;3.53;;
10511;SDS011;5304;48.604;2.096;2023-02-01T15:56:14;18.37;;;4.17;;
10511;SDS011;5304;48.604;2.096;2023-02-01T15:59:16;20.70;;;3.97;;
10511;SDS011;5304;48.604;2.096;2023-02-01T16:02:04;11.97;;;3.43;;
10511;SDS011;5304;48.604;2.096;2023-02-01T16:08:21;15.93;;;6.23;;
10511;SDS011;5304;48.604;2.096;2023-02-01T16:11:24;48.87;;;22.13;;
10511;SDS011;5304;48.604;2.096;2023-02-01T16:14:11;18.67;;;9.03;;
10511;SDS011;5304;48.604;2.096;2023-02-01T16:16:56;18.37;;;8.00;;
10511;SDS011;5304;48.604;2.096;2023-02-01T16:19:42;12.80;;;6.60;;
10511;SDS011;5304;48.604;2.096;2023-02-01T16:22:26;8.53;;;5.57;;
10511;SDS011;5304;48.604;2.096;2023-02-01T16:25:11;15.00;;;5.20;;
10511;SDS011;5304;48.604;2.096;2023-02-01T16:27:55;17.10;;;6.40;;
10511;SDS011;5304;48.604;2.096;2023-02-01T16:30:40;15.13;;;4.90;;
10511;SDS011;5304;48.604;2.096;2023-02-01T16:33:24;17.87;;;5.50;;
10511;SDS011;5304;48.604;2.096;2023-02-01T16:36:09;9.43;;;4.87;;
10511;SDS011;5304;48.604;2.096;2023-02-01T16:38:54;9.53;;;4.03;;
10511;SDS011;5304;48.604;2.096;2023-02-01T16:41:39;12.50;;;4.20;;
10511;SDS011;5304;48.604;2.096;2023-02-01T16:44:24;14.10;;;5.07;;
10511;SDS011;5304;48.604;2.096;2023-02-01T16:47:16;13.90;;;4.67;;
10511;SDS011;5304;48.604;2.096;2023-02-01T16:50:02;14.13;;;4.40;;
10511;SDS011;5304;48.604;2.096;2023-02-01T16:52:47;21.77;;;5.20;;
10511;SDS011;5304;48.604;2.096;2023-02-01T16:55:32;9.97;;;4.43;;
10511;SDS011;5304;48.604;2.096;2023-02-01T16:58:16;14.30;;;5.70;;
10511;SDS011;5304;48.604;2.096;2023-02-01T17:01:01;18.03;;;5.20;;
10511;SDS011;5304;48.604;2.096;2023-02-01T17:03:45;16.43;;;4.63;;
10511;SDS011;5304;48.604;2.096;2023-02-01T17:06:30;14.10;;;5.20;;
10511;SDS011;5304;48.604;2.096;2023-02-01T17:09:16;17.30;;;5.17;;
10511;SDS011;5304;48.604;2.096;2023-02-01T17:12:00;21.10;;;5.63;;
10511;SDS011;5304;48.604;2.096;2023-02-01T17:14:45;19.17;;;6.37;;
10511;SDS011;5304;48.604;2.096;2023-02-01T17:17:32;20.50;;;6.60;;
10511;SDS011;5304;48.604;2.096;2023-02-01T17:20:20;14.47;;;6.27;;
10511;SDS011;5304;48.604;2.096;2023-02-01T17:23:06;16.60;;;6.23;;
10511;SDS011;5304;48.604;2.096;2023-02-01T17:25:51;15.90;;;5.77;;
10511;SDS011;5304;48.604;2.096;2023-02-01T17:28:36;17.23;;;4.83;;
10511;SDS011;5304;48.604;2.096;2023-02-01T17:31:20;11.63;;;4.90;;
10511;SDS011;5304;48.604;2.096;2023-02-01T17:34:08;19.13;;;5.07;;
10511;SDS011;5304;48.604;2.096;2023-02-01T17:36:58;13.80;;;4.97;;
10511;SDS011;5304;48.604;2.096;2023-02-01T17:39:42;26.73;;;10.03;;
10511;SDS011;5304;48.604;2.096;2023-02-01T17:42:39;19.30;;;7.90;;
10511;SDS011;5304;48.604;2.096;2023-02-01T17:45:34;21.50;;;7.97;;
10511;SDS011;5304;48.604;2.096;2023-02-01T17:48:21;10.60;;;5.90;;
10511;SDS011;5304;48.604;2.096;2023-02-01T17:51:20;14.27;;;6.47;;
10511;SDS011;5304;48.604;2.096;2023-02-01T17:54:11;19.87;;;7.17;;
10511;SDS011;5304;48.604;2.096;2023-02-01T17:56:56;22.33;;;8.43;;
10511;SDS011;5304;48.604;2.096;2023-02-01T17:59:43;20.77;;;9.17;;
10511;SDS011;5304;48.604;2.096;2023-02-01T18:02:27;19.90;;;9.40;;
10511;SDS011;5304;48.604;2.096;2023-02-01T18:08:09;23.70;;;11.37;;
10511;SDS011;5304;48.604;2.096;2023-02-01T18:10:54;20.50;;;10.50;;
10511;SDS011;5304;48.604;2.096;2023-02-01T18:13:44;17.30;;;9.70;;
10511;SDS011;5304;48.604;2.096;2023-02-01T18:16:30;20.63;;;8.63;;
10511;SDS011;5304;48.604;2.096;2023-02-01T18:19:16;19.47;;;7.70;;
10511;SDS011;5304;48.604;2.096;2023-02-01T18:22:00;23.30;;;9.07;;
10511;SDS011;5304;48.604;2.096;2023-02-01T18:24:45;16.20;;;8.43;;
10511;SDS011;5304;48.604;2.096;2023-02-01T18:27:30;17.97;;;9.13;;
10511;SDS011;5304;48.604;2.096;2023-02-01T18:30:14;22.43;;;11.00;;
10511;SDS011;5304;48.604;2.096;2023-02-01T18:32:59;27.10;;;11.13;;
10511;SDS011;5304;48.604;2.096;2023-02-01T18:35:44;25.03;;;10.97;;
10511;SDS011;5304;48.604;2.096;2023-02-01T18:38:29;34.93;;;11.83;;
10511;SDS011;5304;48.604;2.096;2023-02-01T18:41:14;31.10;;;12.80;;
10511;SDS011;5304;48.604;2.096;2023-02-01T18:44:00;34.53;;;11.73;;
10511;SDS011;5304;48.604;2.096;2023-02-01T18:46:46;33.27;;;12.13;;
10511;SDS011;5304;48.604;2.096;2023-02-01T18:49:30;31.90;;;12.20;;
10511;SDS011;5304;48.604;2.096;2023-02-01T18:52:14;30.43;;;11.70;;
10511;SDS011;5304;48.604;2.096;2023-02-01T18:54:59;23.00;;;10.17;;
10511;SDS011;5304;48.604;2.096;2023-02-01T18:57:44;22.43;;;9.03;;
10511;SDS011;5304;48.604;2.096;2023-02-01T19:00:28;19.33;;;7.37;;
10511;SDS011;5304;48.604;2.096;2023-02-01T19:03:13;20.00;;;7.43;;
10511;SDS011;5304;48.604;2.096;2023-02-01T19:05:58;19.93;;;7.13;;
10511;SDS011;5304;48.604;2.096;2023-02-01T19:08:45;19.73;;;9.60;;
10511;SDS011;5304;48.604;2.096;2023-02-01T19:11:30;15.30;;;6.37;;